Flight VSA050F

  • Submitted By: Kevin Harkins
  • Departure Airport: Miami International Airport (KMIA)
  • Arrival Airport: Cincinnati/Northern Kentucky KCVG HUB (KCVG)
  • Aircraft: B727-200F (N72720SA)
  • Flight Time: 01.58
  • Date Submitted: 11/05/2016
  • Route: DIRECT, PILOTS OPTION.
  • Status: Accepted
Flight Details
Gross Revenue:
(59879 load / $ 77.00 per unit
$ 4,610,683.00
Fuel Cost:
(14914 fuel used @ 5.1 / unit)
$ 76,061.40

Flight Details

  • Upper FWD Main: -
  • Upper AFT Main: -
  • Lower FWD: -
  • Lower AFT: -
  • WX Engine used: FS WX
  • Flight Type IFR/VFR: IFR
  • Number of Flight Crew: 2
  • Upper Main Center Single : -
  • A380 UPR MAIN SGL: -
  • A380 MID MAIN SGL: -
  • A380 LWR DECK SGL: -

Additional Log Information:

View Log

[10:14] Aircraft Title - b727 Paint2
[10:14] Aircraft Model - B722
[10:14] Flight Number VSA050F
[10:14] Departure KMIA
[10:14] Destination KCVG
[10:14] Boarding
[10:15] Taxiing to Runway
[10:15] Taking Off
[10:16] Taking Off
[10:16] 163kts
[10:16] pitch angle 4 degrees
[10:16] 28140 (lbs) of fuel onboard
[10:17] Climbing
[10:38] TOC Reached
[10:38] Cruise 34000
[11:33] TOD Reached
[11:33] Descending
[12:04] On Approach
[12:10] Landing Rate -308fpm
[12:10] 13734 (lbs) of fuel onboard
[12:10] pitch angle 1 degrees
[12:10] Taxiing to Gate
[12:13] Arrived
[12:13] Max Sim Rate: 1x
[12:13] kACARS_Free Version 1.0.1.1

Comments

Commenter Comment
Kevin Harkins kmia / kphl vatsim flt b727f KMIA HEDLY J53 CRG J121 CHS J165 RIC J14 PXT J191 BESSI KPHL KMIA 051453Z 01008KT 340V040 10SM FEW030 26/19 A3008 RMK AO2 SLP186 T02560189 52010 KPHL 051554Z 28008KT 10SM CLR 14/04 A3028 RMK AO2 SLP252 T01440039 crew - 2

Route Map

Pilots Online

Guests Online